Time;durP1;ratioP1;P1;durP2;ratioP2;P2;SDS_P1;SDS_P2;PMS_P1;PMS_P2;Temp;Humidity;BMP_temperature;BMP_pressure;BME280_temperature;BME280_humidity;BME280_pressure;Samples;Min_cycle;Max_cycle;Signal;HPM_P1;HPM_P2
2022/06/29 00:00:21;;;;;;;0.13;0.13;;;;;;;;;;5106006;27;20035;-95
2022/06/29 00:02:47;;;;;;;0.00;0.00;;;;;;;;;;5112461;27;20042;-91
2022/06/29 00:05:14;;;;;;;0.00;0.00;;;;;;;;;;5109007;27;20103;-91
2022/06/29 00:07:41;;;;;;;0.03;0.03;;;;;;;;;;5108861;27;20104;-92
2022/06/29 00:10:07;;;;;;;0.10;0.10;;;;;;;;;;5122330;27;20453;-92
2022/06/29 00:12:33;;;;;;;0.10;0.10;;;;;;;;;;5106678;27;20070;-89
2022/06/29 00:15:02;;;;;;;0.10;0.10;;;;;;;;;;5110524;27;20114;-91
2022/06/29 00:17:32;;;;;;;0.00;0.00;;;;;;;;;;5107082;27;20046;-93
2022/06/29 00:20:00;;;;;;;0.20;0.20;;;;;;;;;;5112181;27;20483;-91
2022/06/29 00:22:27;;;;;;;0.10;0.10;;;;;;;;;;5111536;27;20031;-91
2022/06/29 00:24:53;;;;;;;0.08;0.08;;;;;;;;;;5100280;28;20043;-90
2022/06/29 00:27:20;;;;;;;0.05;0.05;;;;;;;;;;5099399;27;20048;-90
2022/06/29 00:29:46;;;;;;;0.00;0.00;;;;;;;;;;5120860;27;20416;-90
2022/06/29 00:32:12;;;;;;;0.10;0.10;;;;;;;;;;5104850;27;20062;-91
2022/06/29 00:34:39;;;;;;;0.00;0.00;;;;;;;;;;5106670;27;20056;-91
2022/06/29 00:37:05;;;;;;;0.00;0.00;;;;;;;;;;5101315;27;20035;-91
2022/06/29 00:39:31;;;;;;;0.10;0.10;;;;;;;;;;5101007;28;20039;-91
2022/06/29 00:41:58;;;;;;;0.10;0.10;;;;;;;;;;5101454;27;20047;-91
2022/06/29 00:44:24;;;;;;;0.10;0.10;;;;;;;;;;5109281;27;20046;-92
2022/06/29 00:46:51;;;;;;;0.00;0.00;;;;;;;;;;5108905;27;20065;-92
2022/06/29 00:49:20;;;;;;;0.00;0.00;;;;;;;;;;5126476;27;20039;-92
2022/06/29 00:51:47;;;;;;;0.00;0.00;;;;;;;;;;5095896;28;20087;-93
2022/06/29 00:54:20;;;;;;;0.00;0.00;;;;;;;;;;5098743;28;20035;-91
2022/06/29 00:56:47;;;;;;;0.10;0.10;;;;;;;;;;5111373;27;20046;-93
2022/06/29 00:59:15;;;;;;;0.10;0.10;;;;;;;;;;5100165;28;20039;-88
2022/06/29 01:01:42;;;;;;;0.00;0.00;;;;;;;;;;5105495;27;20039;-93
2022/06/29 01:04:08;;;;;;;0.10;0.10;;;;;;;;;;5098360;28;20038;-93
2022/06/29 01:06:34;;;;;;;0.00;0.00;;;;;;;;;;5105177;27;20070;-93
2022/06/29 01:09:03;;;;;;;0.10;0.10;;;;;;;;;;5108199;28;20036;-91
2022/06/29 01:11:29;;;;;;;0.05;0.05;;;;;;;;;;5105809;27;20091;-91
2022/06/29 01:13:56;;;;;;;0.10;0.10;;;;;;;;;;5106908;28;20536;-92
2022/06/29 01:16:23;;;;;;;0.10;0.10;;;;;;;;;;5115252;27;20115;-92
2022/06/29 01:18:49;;;;;;;2.30;1.55;;;;;;;;;;5111704;27;20074;-92
2022/06/29 01:21:17;;;;;;;0.00;0.00;;;;;;;;;;5100991;28;20044;-90
2022/06/29 01:23:43;;;;;;;0.10;0.10;;;;;;;;;;5110766;27;20071;-90
2022/06/29 01:29:32;;;;;;;0.10;0.10;;;;;;;;;;5139060;27;20030;-95
2022/06/29 01:31:59;;;;;;;0.10;0.10;;;;;;;;;;5103490;27;20092;-93
2022/06/29 01:34:26;;;;;;;0.05;0.05;;;;;;;;;;5117049;28;20051;-93
2022/06/29 01:36:52;;;;;;;0.00;0.00;;;;;;;;;;5099343;27;20035;-93
2022/06/29 01:39:18;;;;;;;0.00;0.00;;;;;;;;;;5095683;28;20036;-91
2022/06/29 01:41:45;;;;;;;0.00;0.00;;;;;;;;;;5102112;28;20039;-92
2022/06/29 01:44:11;;;;;;;0.10;0.10;;;;;;;;;;5105150;27;20064;-92
2022/06/29 01:46:37;;;;;;;0.10;0.10;;;;;;;;;;5100359;27;20057;-93
2022/06/29 01:49:03;;;;;;;0.10;0.10;;;;;;;;;;5099083;28;20031;-92
2022/06/29 01:51:29;;;;;;;0.00;0.00;;;;;;;;;;5123498;27;20649;-92
2022/06/29 01:53:55;;;;;;;0.10;0.10;;;;;;;;;;5110323;27;20046;-93
2022/06/29 01:56:21;;;;;;;0.10;0.10;;;;;;;;;;5110024;28;20035;-92
2022/06/29 01:58:48;;;;;;;0.08;0.08;;;;;;;;;;5109540;28;20043;-90
2022/06/29 02:01:14;;;;;;;0.08;0.08;;;;;;;;;;5099737;28;20035;-92
2022/06/29 02:03:40;;;;;;;0.08;0.08;;;;;;;;;;5106919;28;20038;-93
2022/06/29 02:06:06;;;;;;;0.10;0.10;;;;;;;;;;5119320;28;20039;-91
2022/06/29 02:08:32;;;;;;;0.20;0.20;;;;;;;;;;5107889;28;20042;-91
2022/06/29 02:10:58;;;;;;;0.10;0.10;;;;;;;;;;5107885;28;20052;-90
2022/06/29 02:13:25;;;;;;;0.10;0.10;;;;;;;;;;5121683;28;20102;-92
2022/06/29 02:15:54;;;;;;;0.00;0.00;;;;;;;;;;5084505;28;20097;-96
2022/06/29 02:18:20;;;;;;;0.10;0.10;;;;;;;;;;5096859;28;20043;-92
2022/06/29 02:20:46;;;;;;;0.00;0.00;;;;;;;;;;5111045;28;20039;-91
2022/06/29 02:23:12;;;;;;;0.00;0.00;;;;;;;;;;5095845;28;20039;-90
2022/06/29 02:25:38;;;;;;;0.00;0.00;;;;;;;;;;5111216;28;20084;-92
2022/06/29 02:28:04;;;;;;;0.10;0.10;;;;;;;;;;5107134;28;20389;-92
2022/06/29 02:36:11;;;;;;;0.05;0.05;;;;;;;;;;5109524;27;20051;-90
2022/06/29 02:38:37;;;;;;;0.13;0.13;;;;;;;;;;5102654;27;20032;-91
2022/06/29 02:41:04;;;;;;;0.10;0.10;;;;;;;;;;5109344;27;20042;-91
2022/06/29 02:43:30;;;;;;;0.10;0.10;;;;;;;;;;5111225;27;20039;-92
2022/06/29 02:45:57;;;;;;;0.20;0.20;;;;;;;;;;5145669;27;20034;-93
2022/06/29 02:48:23;;;;;;;0.10;0.10;;;;;;;;;;5108035;27;20039;-93
2022/06/29 02:50:50;;;;;;;0.00;0.00;;;;;;;;;;5086353;28;20515;-96
2022/06/29 02:53:16;;;;;;;0.10;0.10;;;;;;;;;;5069312;28;20047;-96
2022/06/29 02:55:42;;;;;;;0.08;0.08;;;;;;;;;;5106526;27;20047;-94
2022/06/29 02:58:08;;;;;;;0.30;0.30;;;;;;;;;;5106067;27;20031;-91
2022/06/29 03:00:37;;;;;;;0.10;0.10;;;;;;;;;;5109680;27;20039;-92
2022/06/29 03:03:03;;;;;;;0.10;0.10;;;;;;;;;;5107178;27;20069;-92
2022/06/29 03:05:29;;;;;;;0.20;0.20;;;;;;;;;;5107589;27;20043;-91
2022/06/29 03:07:56;;;;;;;0.00;0.00;;;;;;;;;;5128584;27;20049;-90
2022/06/29 03:10:22;;;;;;;0.10;0.10;;;;;;;;;;5106394;28;20039;-90
2022/06/29 03:12:48;;;;;;;0.03;0.03;;;;;;;;;;5106810;27;20054;-92
2022/06/29 03:15:14;;;;;;;0.03;0.03;;;;;;;;;;5107922;28;20040;-87
2022/06/29 03:17:40;;;;;;;0.10;0.10;;;;;;;;;;5110644;27;20043;-91
2022/06/29 03:20:06;;;;;;;0.10;0.10;;;;;;;;;;5106337;27;20066;-91
2022/06/29 03:22:33;;;;;;;0.10;0.10;;;;;;;;;;5111897;28;20031;-91
2022/06/29 03:24:59;;;;;;;0.00;0.00;;;;;;;;;;5104759;28;20042;-92
2022/06/29 03:27:25;;;;;;;0.05;0.05;;;;;;;;;;5103272;27;20076;-91
2022/06/29 03:29:51;;;;;;;0.00;0.00;;;;;;;;;;5109954;27;20071;-91
2022/06/29 03:32:17;;;;;;;0.00;0.00;;;;;;;;;;5112858;27;20066;-90
2022/06/29 03:34:43;;;;;;;0.10;0.10;;;;;;;;;;5109713;27;20043;-92
2022/06/29 03:37:09;;;;;;;0.20;0.20;;;;;;;;;;5101248;27;20038;-90
2022/06/29 03:39:35;;;;;;;0.10;0.10;;;;;;;;;;5097595;27;20043;-91
2022/06/29 03:42:02;;;;;;;0.05;0.05;;;;;;;;;;5106817;27;20035;-92
2022/06/29 03:44:28;;;;;;;0.10;0.10;;;;;;;;;;5107895;27;20103;-91
2022/06/29 03:46:54;;;;;;;0.20;0.20;;;;;;;;;;5113147;27;20035;-91
2022/06/29 03:49:20;;;;;;;0.10;0.10;;;;;;;;;;5108255;27;20050;-92
2022/06/29 03:51:46;;;;;;;1.98;1.75;;;;;;;;;;5107059;27;20040;-91
2022/06/29 03:54:12;;;;;;;0.10;0.10;;;;;;;;;;5112535;27;20510;-91
2022/06/29 03:56:38;;;;;;;0.10;0.10;;;;;;;;;;5103417;27;20043;-90
2022/06/29 03:59:04;;;;;;;0.03;0.03;;;;;;;;;;5101992;27;20042;-92
2022/06/29 04:01:30;;;;;;;0.10;0.10;;;;;;;;;;5110327;28;20496;-89
2022/06/29 04:03:56;;;;;;;0.10;0.10;;;;;;;;;;5109552;28;20101;-91
2022/06/29 04:06:23;;;;;;;0.10;0.10;;;;;;;;;;5109543;27;20043;-91
2022/06/29 04:08:49;;;;;;;0.00;0.00;;;;;;;;;;5101429;27;20047;-92
2022/06/29 04:13:59;;;;;;;0.13;0.13;;;;;;;;;;5117892;27;20126;-92
2022/06/29 04:16:25;;;;;;;0.20;0.20;;;;;;;;;;5112470;27;20205;-91
2022/06/29 04:18:51;;;;;;;0.10;0.10;;;;;;;;;;5110400;27;20127;-92
2022/06/29 04:21:17;;;;;;;0.00;0.00;;;;;;;;;;5106729;27;20108;-89
2022/06/29 04:23:43;;;;;;;0.10;0.10;;;;;;;;;;5109858;27;20035;-91
2022/06/29 04:26:09;;;;;;;0.10;0.10;;;;;;;;;;5098857;28;20059;-88
2022/06/29 04:28:36;;;;;;;0.10;0.10;;;;;;;;;;5105231;28;20072;-92
2022/06/29 04:31:02;;;;;;;0.00;0.00;;;;;;;;;;5104214;28;20036;-91
2022/06/29 04:33:28;;;;;;;0.10;0.10;;;;;;;;;;5106060;27;20047;-93
2022/06/29 04:35:54;;;;;;;0.17;0.17;;;;;;;;;;5112335;27;20062;-92
2022/06/29 04:38:20;;;;;;;0.10;0.10;;;;;;;;;;5113450;27;20046;-92
2022/06/29 04:40:46;;;;;;;0.00;0.00;;;;;;;;;;5113362;27;20035;-91
2022/06/29 04:43:12;;;;;;;0.35;0.32;;;;;;;;;;5110665;28;20071;-92
2022/06/29 04:48:23;;;;;;;0.00;0.00;;;;;;;;;;5128514;27;20043;-91
2022/06/29 04:50:49;;;;;;;0.10;0.10;;;;;;;;;;5107049;27;20042;-91
2022/06/29 04:53:15;;;;;;;0.08;0.08;;;;;;;;;;5104803;27;20049;-92
2022/06/29 04:55:41;;;;;;;0.03;0.03;;;;;;;;;;5107787;27;20043;-92
2022/06/29 04:58:07;;;;;;;0.00;0.00;;;;;;;;;;5124807;28;20031;-92
2022/06/29 05:00:33;;;;;;;0.20;0.20;;;;;;;;;;5107641;27;20039;-91
2022/06/29 05:02:59;;;;;;;0.10;0.10;;;;;;;;;;5114484;27;20091;-92
2022/06/29 05:05:25;;;;;;;0.10;0.10;;;;;;;;;;5110813;27;20047;-92
2022/06/29 05:07:51;;;;;;;0.10;0.10;;;;;;;;;;5106821;27;20124;-93
2022/06/29 05:10:17;;;;;;;0.10;0.10;;;;;;;;;;5129690;27;20039;-92
2022/06/29 05:12:44;;;;;;;0.10;0.10;;;;;;;;;;5123293;27;20047;-89
2022/06/29 05:15:10;;;;;;;0.03;0.03;;;;;;;;;;5106342;27;20039;-92
2022/06/29 05:17:37;;;;;;;0.03;0.03;;;;;;;;;;5111329;28;20039;-92
2022/06/29 05:20:08;;;;;;;0.08;0.08;;;;;;;;;;5127401;27;20039;-90
2022/06/29 05:22:34;;;;;;;0.10;0.10;;;;;;;;;;5120866;28;20032;-92
2022/06/29 05:25:01;;;;;;;0.10;0.10;;;;;;;;;;5108790;28;20126;-90
2022/06/29 05:27:27;;;;;;;0.00;0.00;;;;;;;;;;5112080;27;20061;-91
2022/06/29 05:29:53;;;;;;;0.00;0.00;;;;;;;;;;5109536;27;20053;-92
2022/06/29 05:32:19;;;;;;;0.00;0.00;;;;;;;;;;5103693;28;20048;-90
2022/06/29 05:34:45;;;;;;;0.10;0.10;;;;;;;;;;5101676;27;20036;-92
2022/06/29 05:37:11;;;;;;;0.03;0.03;;;;;;;;;;5103521;27;20908;-92
2022/06/29 05:39:37;;;;;;;0.00;0.00;;;;;;;;;;5125211;27;20035;-93
2022/06/29 05:42:03;;;;;;;0.10;0.10;;;;;;;;;;5104563;27;20157;-94
2022/06/29 05:44:30;;;;;;;0.00;0.00;;;;;;;;;;5101797;28;20035;-93
2022/06/29 05:46:57;;;;;;;0.10;0.10;;;;;;;;;;5107569;27;20035;-93
2022/06/29 05:49:30;;;;;;;0.10;0.10;;;;;;;;;;5097995;28;20051;-89
2022/06/29 05:51:56;;;;;;;0.08;0.08;;;;;;;;;;5104608;28;20061;-93
2022/06/29 05:54:22;;;;;;;0.05;0.05;;;;;;;;;;5106197;27;20043;-93
2022/06/29 05:56:48;;;;;;;0.10;0.10;;;;;;;;;;5104305;28;20047;-92
2022/06/29 05:59:15;;;;;;;0.05;0.05;;;;;;;;;;5107848;28;20084;-90
2022/06/29 06:01:41;;;;;;;0.10;0.10;;;;;;;;;;5106692;28;20039;-86
2022/06/29 06:04:07;;;;;;;0.08;0.08;;;;;;;;;;5098985;28;20062;-91
2022/06/29 06:06:33;;;;;;;0.10;0.10;;;;;;;;;;5099422;28;20077;-89
2022/06/29 06:09:00;;;;;;;0.10;0.10;;;;;;;;;;5102988;28;20035;-87
2022/06/29 06:11:26;;;;;;;0.17;0.17;;;;;;;;;;5103233;27;20043;-89
2022/06/29 06:13:52;;;;;;;0.03;0.03;;;;;;;;;;5104996;28;20039;-90
2022/06/29 06:16:18;;;;;;;0.00;0.00;;;;;;;;;;5104778;27;20035;-87
2022/06/29 06:18:44;;;;;;;0.03;0.03;;;;;;;;;;5105941;27;20168;-89
2022/06/29 06:21:15;;;;;;;0.00;0.00;;;;;;;;;;5100588;27;20496;-89
2022/06/29 06:23:42;;;;;;;0.10;0.10;;;;;;;;;;5115817;27;20043;-90
2022/06/29 06:26:08;;;;;;;0.00;0.00;;;;;;;;;;5105095;27;20035;-89
2022/06/29 06:28:34;;;;;;;0.03;0.03;;;;;;;;;;5105666;27;20126;-92
2022/06/29 06:31:00;;;;;;;0.10;0.10;;;;;;;;;;5103680;27;20050;-93
2022/06/29 06:33:27;;;;;;;0.00;0.00;;;;;;;;;;5107264;28;20047;-92
2022/06/29 06:35:54;;;;;;;0.03;0.03;;;;;;;;;;5106683;28;20378;-93
2022/06/29 06:38:20;;;;;;;0.10;0.10;;;;;;;;;;5129570;27;20120;-91
2022/06/29 06:43:30;;;;;;;0.00;0.00;;;;;;;;;;5128424;27;20043;-94
2022/06/29 06:45:56;;;;;;;0.03;0.03;;;;;;;;;;5112893;27;20044;-90
2022/06/29 06:48:22;;;;;;;0.00;0.00;;;;;;;;;;5099443;27;20050;-94
2022/06/29 06:50:48;;;;;;;0.00;0.00;;;;;;;;;;5106159;27;20439;-92
2022/06/29 06:53:15;;;;;;;0.00;0.00;;;;;;;;;;5125653;27;20035;-90
2022/06/29 06:55:41;;;;;;;0.00;0.00;;;;;;;;;;5113841;27;20057;-90
2022/06/29 06:58:14;;;;;;;0.00;0.00;;;;;;;;;;5104017;27;20031;-90
2022/06/29 07:00:44;;;;;;;0.00;0.00;;;;;;;;;;5107504;27;20043;-90
2022/06/29 07:03:10;;;;;;;0.10;0.10;;;;;;;;;;5105076;27;20115;-87
2022/06/29 07:05:37;;;;;;;0.10;0.10;;;;;;;;;;5105026;27;20047;-90
2022/06/29 07:08:03;;;;;;;0.00;0.00;;;;;;;;;;5111101;27;20042;-91
2022/06/29 07:10:29;;;;;;;0.13;0.13;;;;;;;;;;5108206;27;20047;-90
2022/06/29 07:12:59;;;;;;;0.00;0.00;;;;;;;;;;5096248;27;20043;-91
2022/06/29 07:15:25;;;;;;;0.10;0.10;;;;;;;;;;5095155;27;20131;-88
2022/06/29 07:17:51;;;;;;;0.30;0.30;;;;;;;;;;5103859;27;20036;-90
2022/06/29 07:20:17;;;;;;;0.00;0.00;;;;;;;;;;5098565;28;20031;-88
2022/06/29 07:22:43;;;;;;;0.00;0.00;;;;;;;;;;5104521;28;20044;-90
2022/06/29 07:25:14;;;;;;;0.00;0.00;;;;;;;;;;5096798;27;20062;-90
2022/06/29 07:27:40;;;;;;;0.10;0.10;;;;;;;;;;5134920;27;20050;-90
2022/06/29 07:30:06;;;;;;;0.10;0.10;;;;;;;;;;5102818;28;20035;-94
2022/06/29 07:33:09;;;;;;;0.00;0.00;;;;;;;;;;5094518;28;20046;-91
2022/06/29 07:35:35;;;;;;;0.00;0.00;;;;;;;;;;5105403;27;20040;-90
2022/06/29 07:38:03;;;;;;;0.00;0.00;;;;;;;;;;5110991;27;20097;-93
2022/06/29 07:40:29;;;;;;;0.00;0.00;;;;;;;;;;5103961;28;20069;-91
2022/06/29 07:42:58;;;;;;;0.00;0.00;;;;;;;;;;5104149;27;20039;-91
2022/06/29 07:45:24;;;;;;;0.10;0.10;;;;;;;;;;5104447;27;20176;-88
2022/06/29 07:47:51;;;;;;;0.03;0.03;;;;;;;;;;5123952;27;20613;-89
2022/06/29 07:50:17;;;;;;;0.03;0.03;;;;;;;;;;5105049;28;20051;-89
2022/06/29 07:52:44;;;;;;;0.00;0.00;;;;;;;;;;5120530;27;20043;-91
2022/06/29 07:55:10;;;;;;;0.00;0.00;;;;;;;;;;5102254;27;20046;-89
2022/06/29 07:57:36;;;;;;;0.10;0.10;;;;;;;;;;5106097;27;20096;-89
2022/06/29 08:00:04;;;;;;;0.10;0.10;;;;;;;;;;5123489;27;20062;-91
2022/06/29 08:02:30;;;;;;;0.00;0.00;;;;;;;;;;5104614;27;20062;-90
2022/06/29 08:04:58;;;;;;;0.10;0.10;;;;;;;;;;5101042;27;20043;-87
2022/06/29 08:07:24;;;;;;;0.10;0.10;;;;;;;;;;5097910;27;21666;-84
2022/06/29 08:09:50;;;;;;;0.10;0.10;;;;;;;;;;5092610;27;20032;-84
2022/06/29 08:12:16;;;;;;;0.10;0.10;;;;;;;;;;5095860;27;20489;-84
2022/06/29 08:14:46;;;;;;;0.00;0.00;;;;;;;;;;5094774;27;20400;-86
2022/06/29 08:17:12;;;;;;;0.10;0.10;;;;;;;;;;5095479;27;20066;-83
2022/06/29 08:19:38;;;;;;;0.00;0.00;;;;;;;;;;5094138;27;20038;-83
2022/06/29 08:22:04;;;;;;;0.00;0.00;;;;;;;;;;5089718;27;20027;-84
2022/06/29 08:24:30;;;;;;;0.00;0.00;;;;;;;;;;5093969;27;20062;-84
2022/06/29 08:26:56;;;;;;;0.10;0.10;;;;;;;;;;5094630;27;20493;-84
2022/06/29 08:29:22;;;;;;;0.13;0.13;;;;;;;;;;5092040;27;20046;-84
2022/06/29 08:31:48;;;;;;;0.00;0.00;;;;;;;;;;5099654;27;20035;-86
2022/06/29 08:34:20;;;;;;;0.00;0.00;;;;;;;;;;5087452;28;20039;-85
2022/06/29 08:36:46;;;;;;;0.03;0.03;;;;;;;;;;5094385;27;20041;-85
2022/06/29 08:39:12;;;;;;;0.00;0.00;;;;;;;;;;5100614;27;20046;-85
2022/06/29 08:41:52;;;;;;;0.00;0.00;;;;;;;;;;5098437;27;20039;-85
2022/06/29 08:44:23;;;;;;;0.00;0.00;;;;;;;;;;5098117;27;20503;-84
2022/06/29 08:46:49;;;;;;;0.10;0.10;;;;;;;;;;5092333;27;20096;-85
2022/06/29 08:49:16;;;;;;;0.00;0.00;;;;;;;;;;5095531;27;20039;-90
2022/06/29 08:51:44;;;;;;;0.00;0.00;;;;;;;;;;5099059;28;20378;-92
2022/06/29 08:54:14;;;;;;;0.00;0.00;;;;;;;;;;5090506;27;20519;-89
2022/06/29 08:56:40;;;;;;;0.00;0.00;;;;;;;;;;5087423;27;20039;-93
2022/06/29 08:59:11;;;;;;;0.00;0.00;;;;;;;;;;5127189;27;20036;-94
2022/06/29 09:01:37;;;;;;;0.00;0.00;;;;;;;;;;5106511;27;20043;-92
2022/06/29 09:04:04;;;;;;;0.00;0.00;;;;;;;;;;5106548;27;20034;-90
2022/06/29 09:06:30;;;;;;;0.00;0.00;;;;;;;;;;5100070;27;20051;-88
2022/06/29 09:09:03;;;;;;;0.10;0.10;;;;;;;;;;5102702;27;20035;-88
2022/06/29 09:11:29;;;;;;;0.00;0.00;;;;;;;;;;5101017;27;20047;-88
2022/06/29 09:14:09;;;;;;;0.00;0.00;;;;;;;;;;5106983;27;20053;-89
2022/06/29 09:16:56;;;;;;;0.10;0.10;;;;;;;;;;5117602;27;20043;-88
2022/06/29 09:19:25;;;;;;;0.05;0.05;;;;;;;;;;5089610;28;20091;-91
2022/06/29 09:21:52;;;;;;;0.00;0.00;;;;;;;;;;5064982;28;20039;-94
2022/06/29 09:24:22;;;;;;;0.00;0.00;;;;;;;;;;5080590;28;20035;-93
2022/06/29 09:26:56;;;;;;;0.10;0.10;;;;;;;;;;5095403;27;20075;-91
2022/06/29 09:29:24;;;;;;;0.00;0.00;;;;;;;;;;5080101;27;20043;-86
2022/06/29 09:32:16;;;;;;;0.10;0.10;;;;;;;;;;5095382;27;20671;-88
2022/06/29 09:34:46;;;;;;;0.03;0.03;;;;;;;;;;5115046;27;20051;-92
2022/06/29 09:40:35;;;;;;;0.00;0.00;;;;;;;;;;5118220;28;20038;-95
2022/06/29 09:43:04;;;;;;;0.00;0.00;;;;;;;;;;5092968;27;20030;-96
2022/06/29 09:45:30;;;;;;;0.00;0.00;;;;;;;;;;5109036;28;20039;-93
2022/06/29 09:47:56;;;;;;;0.10;0.10;;;;;;;;;;5096370;28;20058;-95
2022/06/29 09:50:22;;;;;;;0.00;0.00;;;;;;;;;;5106353;27;20050;-93
2022/06/29 09:52:49;;;;;;;0.30;0.30;;;;;;;;;;5100810;28;20039;-92
2022/06/29 09:55:15;;;;;;;0.03;0.03;;;;;;;;;;5106688;27;20084;-95
2022/06/29 10:03:37;;;;;;;0.00;0.00;;;;;;;;;;5115310;28;20047;-94
2022/06/29 10:06:07;;;;;;;0.00;0.00;;;;;;;;;;5119987;28;20104;-89
2022/06/29 10:08:35;;;;;;;0.00;0.00;;;;;;;;;;5096997;28;20055;-89
2022/06/29 10:13:39;;;;;;;0.10;0.10;;;;;;;;;;5098317;28;20051;-88
2022/06/29 10:13:55;;;;;;;0.05;0.05;;;;;;;;;;5118669;28;20059;-89
2022/06/29 10:16:50;;;;;;;0.00;0.00;;;;;;;;;;5097277;28;20055;-88
2022/06/29 10:19:25;;;;;;;0.00;0.00;;;;;;;;;;5092776;28;20047;-89
2022/06/29 10:21:55;;;;;;;0.05;0.05;;;;;;;;;;5093341;28;20039;-89
2022/06/29 10:24:21;;;;;;;0.10;0.10;;;;;;;;;;5121205;28;20048;-89
2022/06/29 10:26:49;;;;;;;0.30;0.30;;;;;;;;;;5101392;28;20095;-89
2022/06/29 10:29:18;;;;;;;0.00;0.00;;;;;;;;;;5093096;28;20107;-87
2022/06/29 10:31:51;;;;;;;0.00;0.00;;;;;;;;;;5094660;28;20043;-89
2022/06/29 10:34:38;;;;;;;0.10;0.10;;;;;;;;;;5115916;28;20075;-92
2022/06/29 10:37:12;;;;;;;0.00;0.00;;;;;;;;;;5105130;28;20392;-87
2022/06/29 10:39:41;;;;;;;0.00;0.00;;;;;;;;;;5098788;28;20031;-95
2022/06/29 10:44:56;;;;;;;0.00;0.00;;;;;;;;;;5069717;28;20046;-94
2022/06/29 10:47:22;;;;;;;0.00;0.00;;;;;;;;;;5102462;28;20043;-89
2022/06/29 10:49:48;;;;;;;0.00;0.00;;;;;;;;;;5096614;28;20104;-89
2022/06/29 10:52:15;;;;;;;0.00;0.00;;;;;;;;;;5095963;28;20061;-88
2022/06/29 10:54:42;;;;;;;0.00;0.00;;;;;;;;;;5089807;28;20507;-87
2022/06/29 10:57:08;;;;;;;0.00;0.00;;;;;;;;;;5097866;27;20039;-89
2022/06/29 10:59:38;;;;;;;0.10;0.10;;;;;;;;;;5110408;27;20072;-92
2022/06/29 11:02:14;;;;;;;0.00;0.00;;;;;;;;;;5106152;27;20042;-91
2022/06/29 11:04:43;;;;;;;0.00;0.00;;;;;;;;;;5096758;28;20047;-91
2022/06/29 11:12:49;;;;;;;0.00;0.00;;;;;;;;;;5105560;27;20050;-94
2022/06/29 11:15:41;;;;;;;0.00;0.00;;;;;;;;;;5098271;27;20039;-89
2022/06/29 11:18:08;;;;;;;0.05;0.05;;;;;;;;;;5107562;27;20035;-91
2022/06/29 11:20:40;;;;;;;0.00;0.00;;;;;;;;;;5108677;27;20046;-95
2022/06/29 11:23:29;;;;;;;0.03;0.03;;;;;;;;;;5110645;28;20035;-93
2022/06/29 11:25:55;;;;;;;0.00;0.00;;;;;;;;;;5124635;27;20397;-93
2022/06/29 11:28:23;;;;;;;0.00;0.00;;;;;;;;;;5113018;27;20046;-90
2022/06/29 11:30:58;;;;;;;0.10;0.10;;;;;;;;;;5104357;27;20043;-90
2022/06/29 11:33:27;;;;;;;0.03;0.03;;;;;;;;;;5115355;27;20043;-92
2022/06/29 11:35:54;;;;;;;0.03;0.03;;;;;;;;;;5107618;27;20031;-88
2022/06/29 11:38:20;;;;;;;0.10;0.10;;;;;;;;;;5100141;27;20115;-90
2022/06/29 11:40:50;;;;;;;0.00;0.00;;;;;;;;;;5098156;28;20026;-91
2022/06/29 11:43:22;;;;;;;0.00;0.00;;;;;;;;;;5107263;27;20047;-90
2022/06/29 11:45:52;;;;;;;0.00;0.00;;;;;;;;;;5103233;27;20042;-90
2022/06/29 11:48:19;;;;;;;0.00;0.00;;;;;;;;;;5097572;27;20035;-85
2022/06/29 11:50:45;;;;;;;0.10;0.10;;;;;;;;;;5096895;27;20044;-86
2022/06/29 11:53:15;;;;;;;0.00;0.00;;;;;;;;;;5098752;27;20027;-87
2022/06/29 11:55:43;;;;;;;0.00;0.00;;;;;;;;;;5093027;27;20437;-88
2022/06/29 11:58:19;;;;;;;0.00;0.00;;;;;;;;;;5101724;27;20114;-88
2022/06/29 12:00:45;;;;;;;0.00;0.00;;;;;;;;;;5099763;27;20381;-89
2022/06/29 12:03:14;;;;;;;0.00;0.00;;;;;;;;;;5097911;27;20035;-88
2022/06/29 12:06:03;;;;;;;0.00;0.00;;;;;;;;;;5101004;27;20512;-88
2022/06/29 12:08:30;;;;;;;0.00;0.00;;;;;;;;;;5095166;27;20507;-89
2022/06/29 12:11:04;;;;;;;0.10;0.10;;;;;;;;;;5132311;27;20050;-95
2022/06/29 12:13:30;;;;;;;0.00;0.00;;;;;;;;;;5103398;27;20461;-90
2022/06/29 12:15:56;;;;;;;0.10;0.10;;;;;;;;;;5103889;27;20114;-92
2022/06/29 12:18:22;;;;;;;0.00;0.00;;;;;;;;;;5103287;27;20019;-95
2022/06/29 12:20:48;;;;;;;0.00;0.00;;;;;;;;;;5083162;28;20035;-92
2022/06/29 12:23:14;;;;;;;0.08;0.08;;;;;;;;;;5082741;28;20050;-89
2022/06/29 12:25:40;;;;;;;0.00;0.00;;;;;;;;;;5098968;28;20412;-92
2022/06/29 12:28:07;;;;;;;0.00;0.00;;;;;;;;;;5082608;28;20476;-89
2022/06/29 12:30:33;;;;;;;0.00;0.00;;;;;;;;;;5097824;27;20023;-87
2022/06/29 12:33:28;;;;;;;0.00;0.00;;;;;;;;;;5101742;27;20056;-86
2022/06/29 12:36:10;;;;;;;0.00;0.00;;;;;;;;;;5100716;27;20123;-92
2022/06/29 12:38:39;;;;;;;0.00;0.00;;;;;;;;;;5103481;27;20039;-93
2022/06/29 12:41:05;;;;;;;0.03;0.03;;;;;;;;;;5104720;27;20039;-93
2022/06/29 12:43:31;;;;;;;0.00;0.00;;;;;;;;;;5101835;28;20081;-92
2022/06/29 12:45:58;;;;;;;0.00;0.00;;;;;;;;;;5115101;27;20047;-94
2022/06/29 12:48:27;;;;;;;0.00;0.00;;;;;;;;;;5108013;27;20492;-94
2022/06/29 12:50:53;;;;;;;0.00;0.00;;;;;;;;;;5099536;28;20127;-92
2022/06/29 12:53:20;;;;;;;0.00;0.00;;;;;;;;;;5085416;27;20122;-94
2022/06/29 12:55:47;;;;;;;0.00;0.00;;;;;;;;;;5105070;27;20046;-94
2022/06/29 12:58:13;;;;;;;0.00;0.00;;;;;;;;;;5101979;27;20066;-92
2022/06/29 13:00:39;;;;;;;0.00;0.00;;;;;;;;;;5103130;27;20484;-86
2022/06/29 13:03:21;;;;;;;0.10;0.10;;;;;;;;;;5100480;27;20027;-89
2022/06/29 13:05:51;;;;;;;0.00;0.00;;;;;;;;;;5098272;28;20039;-92
2022/06/29 13:08:17;;;;;;;0.00;0.00;;;;;;;;;;5103707;27;20174;-95
2022/06/29 13:10:43;;;;;;;0.00;0.00;;;;;;;;;;5119358;28;20492;-91
2022/06/29 13:13:09;;;;;;;0.00;0.00;;;;;;;;;;5119822;27;20043;-93
2022/06/29 13:15:35;;;;;;;0.00;0.00;;;;;;;;;;5102925;27;20071;-96
2022/06/29 13:18:06;;;;;;;0.00;0.00;;;;;;;;;;5104654;27;20408;-95
2022/06/29 13:20:32;;;;;;;0.00;0.00;;;;;;;;;;5103004;27;20031;-91
2022/06/29 13:22:58;;;;;;;0.00;0.00;;;;;;;;;;5118875;27;20507;-92
2022/06/29 13:28:48;;;;;;;0.00;0.00;;;;;;;;;;5137467;27;20062;-95
2022/06/29 13:31:14;;;;;;;0.00;0.00;;;;;;;;;;5097222;27;20138;-96
2022/06/29 13:33:41;;;;;;;0.00;0.00;;;;;;;;;;5107708;27;20137;-94
2022/06/29 13:36:09;;;;;;;0.00;0.00;;;;;;;;;;5093598;28;20087;-95
2022/06/29 13:38:35;;;;;;;0.00;0.00;;;;;;;;;;5092833;28;20038;-94
2022/06/29 13:41:19;;;;;;;0.00;0.00;;;;;;;;;;5110369;27;20035;-94
2022/06/29 13:46:49;;;;;;;0.00;0.00;;;;;;;;;;5144785;27;19933;-93
2022/06/29 13:49:16;;;;;;;0.00;0.00;;;;;;;;;;5100143;28;20073;-96
2022/06/29 13:51:42;;;;;;;0.00;0.00;;;;;;;;;;5085127;28;20064;-96
2022/06/29 13:57:31;;;;;;;0.00;0.00;;;;;;;;;;5139648;27;20054;-96
2022/06/29 13:59:59;;;;;;;0.10;0.10;;;;;;;;;;5092817;28;20058;-94
2022/06/29 14:05:57;;;;;;;0.00;0.00;;;;;;;;;;5134310;27;20076;-87
2022/06/29 14:08:23;;;;;;;0.00;0.00;;;;;;;;;;5099156;28;20031;-88
2022/06/29 14:10:49;;;;;;;0.00;0.00;;;;;;;;;;5097286;28;20063;-91
2022/06/29 14:13:15;;;;;;;0.10;0.10;;;;;;;;;;5094641;28;20039;-89
2022/06/29 14:15:43;;;;;;;0.10;0.10;;;;;;;;;;5097396;28;20046;-91
2022/06/29 14:18:09;;;;;;;0.00;0.00;;;;;;;;;;5097940;28;20088;-90
2022/06/29 14:20:35;;;;;;;0.00;0.00;;;;;;;;;;5094994;28;20035;-91
2022/06/29 14:23:01;;;;;;;0.00;0.00;;;;;;;;;;5097046;28;20035;-89
2022/06/29 14:28:50;;;;;;;0.00;0.00;;;;;;;;;;5144476;27;20034;-95
2022/06/29 14:31:16;;;;;;;0.00;0.00;;;;;;;;;;5107596;28;20412;-92
2022/06/29 14:34:16;;;;;;;0.00;0.00;;;;;;;;;;5086175;28;20043;-92
2022/06/29 14:36:42;;;;;;;0.00;0.00;;;;;;;;;;5093978;27;20039;-89
2022/06/29 14:39:08;;;;;;;0.00;0.00;;;;;;;;;;5121246;27;20111;-93
2022/06/29 14:41:35;;;;;;;0.05;0.05;;;;;;;;;;5104676;27;20476;-89
2022/06/29 14:44:01;;;;;;;0.00;0.00;;;;;;;;;;5104307;27;20484;-89
2022/06/29 14:46:27;;;;;;;0.00;0.00;;;;;;;;;;5123476;27;20071;-96
2022/06/29 14:48:58;;;;;;;0.00;0.00;;;;;;;;;;5092763;28;20031;-96
2022/06/29 15:51:09;;;;;;;;;;;;;;;;;;5063311;28;20044;-90
2022/06/29 15:56:24;;;;;;;0.00;0.00;;;;;;;;;;5039195;28;20053;-95
2022/06/29 15:58:50;;;;;;;0.00;0.00;;;;;;;;;;5022195;28;20501;-94
2022/06/29 16:01:16;;;;;;;0.00;0.00;;;;;;;;;;5022032;28;20042;-95
2022/06/29 16:03:42;;;;;;;0.00;0.00;;;;;;;;;;5023620;28;20037;-96
2022/06/29 16:06:08;;;;;;;0.00;0.00;;;;;;;;;;5038817;28;20037;-90
2022/06/29 16:08:35;;;;;;;0.00;0.00;;;;;;;;;;5043646;28;20037;-95
2022/06/29 16:11:02;;;;;;;0.10;0.10;;;;;;;;;;5035431;28;20045;-92
2022/06/29 16:13:28;;;;;;;0.05;0.05;;;;;;;;;;5026006;28;20127;-90
2022/06/29 16:15:54;;;;;;;0.05;0.05;;;;;;;;;;5039516;28;20041;-90
2022/06/29 16:21:26;;;;;;;0.00;0.00;;;;;;;;;;5057921;28;20045;-93
2022/06/29 16:23:52;;;;;;;0.00;0.00;;;;;;;;;;5026722;28;20045;-93
2022/06/29 16:26:18;;;;;;;0.10;0.10;;;;;;;;;;5021112;28;20073;-93
2022/06/29 16:28:44;;;;;;;0.00;0.00;;;;;;;;;;5037200;28;20486;-94
2022/06/29 16:31:10;;;;;;;0.00;0.00;;;;;;;;;;5027964;28;20128;-96
2022/06/29 16:33:36;;;;;;;0.10;0.10;;;;;;;;;;5038645;28;20068;-94
2022/06/29 16:36:03;;;;;;;0.10;0.10;;;;;;;;;;5041517;28;20041;-96
2022/06/29 16:38:30;;;;;;;0.00;0.00;;;;;;;;;;5041022;28;20491;-95
2022/06/29 16:44:18;;;;;;;0.00;0.00;;;;;;;;;;5038005;28;20040;-94
2022/06/29 16:46:46;;;;;;;0.10;0.10;;;;;;;;;;5016703;28;20037;-96